createdAt,value
2018-07-11T00:00:37.793Z,16.74
2018-07-11T00:03:05.925Z,16.69
2018-07-11T00:05:34.300Z,16.64
2018-07-11T00:08:02.373Z,16.63
2018-07-11T00:10:30.401Z,16.60
2018-07-11T00:12:58.433Z,16.57
2018-07-11T00:15:26.884Z,16.50
2018-07-11T00:17:54.953Z,16.43
2018-07-11T00:20:23.093Z,16.39
2018-07-11T00:22:51.122Z,16.38
2018-07-11T00:25:19.357Z,16.35
2018-07-11T00:27:47.452Z,16.35
2018-07-11T00:30:15.606Z,16.31
2018-07-11T00:32:43.740Z,16.26
2018-07-11T00:35:11.913Z,16.20
2018-07-11T00:37:39.961Z,16.17
2018-07-11T00:40:08.212Z,16.13
2018-07-11T00:42:36.250Z,16.13
2018-07-11T00:45:04.969Z,16.13
2018-07-11T00:47:33.345Z,16.15
2018-07-11T00:50:01.404Z,16.15
2018-07-11T00:52:29.429Z,16.19
2018-07-11T00:54:57.893Z,16.21
2018-07-11T00:57:26.132Z,16.21
2018-07-11T00:59:55.246Z,16.21
2018-07-11T01:02:23.272Z,16.16
2018-07-11T01:04:51.305Z,16.13
2018-07-11T01:07:19.347Z,16.12
2018-07-11T01:09:49.353Z,16.11
2018-07-11T01:12:18.029Z,16.06
2018-07-11T01:14:46.509Z,16.05
2018-07-11T01:17:19.817Z,16.05
2018-07-11T01:19:48.380Z,16.04
2018-07-11T01:22:16.426Z,16.02
2018-07-11T01:24:44.471Z,15.98
2018-07-11T01:27:12.501Z,15.89
2018-07-11T01:29:40.533Z,15.78
2018-07-11T01:32:08.634Z,15.71
2018-07-11T01:34:36.717Z,15.69
2018-07-11T01:37:05.633Z,15.69
2018-07-11T01:39:33.673Z,15.67
2018-07-11T01:42:01.703Z,15.65
2018-07-11T01:44:29.730Z,15.61
2018-07-11T01:46:57.805Z,15.58
2018-07-11T01:49:25.875Z,15.52
2018-07-11T01:52:05.276Z,15.44
2018-07-11T01:54:33.675Z,15.40
2018-07-11T01:57:01.941Z,15.30
2018-07-11T01:59:33.846Z,15.24
2018-07-11T02:02:02.311Z,15.15
2018-07-11T02:04:31.611Z,15.04
2018-07-11T02:06:59.737Z,15.01
2018-07-11T02:09:27.777Z,14.97
2018-07-11T02:11:56.082Z,14.99
2018-07-11T02:14:24.526Z,15.01
2018-07-11T02:16:52.609Z,15.00
2018-07-11T02:19:21.760Z,14.98
2018-07-11T02:21:50.233Z,14.95
2018-07-11T02:26:45.983Z,14.92
2018-07-11T02:29:14.049Z,14.92
2018-07-11T02:31:42.088Z,14.89
2018-07-11T02:34:10.202Z,14.89
2018-07-11T02:36:38.313Z,14.87
2018-07-11T02:39:06.357Z,14.85
2018-07-11T02:41:34.401Z,14.83
2018-07-11T02:44:02.793Z,14.83
2018-07-11T02:46:36.223Z,14.84
2018-07-11T02:49:04.937Z,14.83
2018-07-11T02:51:33.221Z,14.84
2018-07-11T02:54:01.270Z,14.84
2018-07-11T02:56:29.586Z,14.86
2018-07-11T02:58:57.847Z,14.84
2018-07-11T03:01:25.883Z,14.82
2018-07-11T03:03:54.161Z,14.81
2018-07-11T03:06:22.197Z,14.79
2018-07-11T03:08:50.471Z,14.76
2018-07-11T03:11:18.514Z,14.73
2018-07-11T03:13:46.538Z,14.66
2018-07-11T03:16:14.771Z,14.63
2018-07-11T03:18:42.845Z,14.60
2018-07-11T03:21:10.918Z,14.55
2018-07-11T03:23:38.984Z,14.52
2018-07-11T03:26:07.029Z,14.43
2018-07-11T03:28:35.124Z,14.30
2018-07-11T03:31:03.311Z,14.29
2018-07-11T03:33:31.325Z,14.28
2018-07-11T03:35:59.353Z,14.27
2018-07-11T03:38:27.462Z,14.22
2018-07-11T03:40:55.498Z,14.19
2018-07-11T03:43:23.526Z,14.17
2018-07-11T03:45:51.579Z,14.14
2018-07-11T03:48:19.742Z,14.12
2018-07-11T03:50:47.818Z,14.15
2018-07-11T03:53:15.853Z,14.17
2018-07-11T03:55:43.892Z,14.19
2018-07-11T03:58:11.929Z,14.22
2018-07-11T04:00:39.994Z,14.25
2018-07-11T04:03:08.165Z,14.26
2018-07-11T04:05:36.213Z,14.30
2018-07-11T04:08:04.265Z,14.34
2018-07-11T04:10:32.317Z,14.36
2018-07-11T04:13:01.713Z,14.36
2018-07-11T04:15:29.894Z,14.36
2018-07-11T04:17:57.938Z,14.37
2018-07-11T04:20:26.340Z,14.39
2018-07-11T04:22:54.538Z,14.41
2018-07-11T04:25:22.702Z,14.45
2018-07-11T04:27:50.751Z,14.49
2018-07-11T04:30:18.963Z,14.52
2018-07-11T04:32:47.186Z,14.54
2018-07-11T04:35:15.219Z,14.58
2018-07-11T04:37:43.261Z,14.59
2018-07-11T04:40:11.332Z,14.60
2018-07-11T04:42:39.397Z,14.81
2018-07-11T04:45:07.438Z,14.88
2018-07-11T04:47:35.568Z,14.87
2018-07-11T04:50:03.621Z,14.96
2018-07-11T04:52:31.780Z,15.01
2018-07-11T04:55:00.432Z,15.03
2018-07-11T04:57:28.484Z,15.06
2018-07-11T04:59:56.530Z,15.06
2018-07-11T05:02:24.781Z,15.07
2018-07-11T05:04:52.845Z,15.10
2018-07-11T05:07:20.910Z,15.15
2018-07-11T05:09:49.222Z,15.17
2018-07-11T05:12:17.269Z,15.20
2018-07-11T05:14:45.463Z,15.22
2018-07-11T05:17:13.494Z,15.26
2018-07-11T05:19:41.541Z,15.30
2018-07-11T05:22:09.593Z,15.35
2018-07-11T05:24:37.647Z,15.44
2018-07-11T05:27:05.909Z,15.51
2018-07-11T05:29:33.965Z,15.57
2018-07-11T05:32:02.169Z,15.65
2018-07-11T05:34:30.649Z,15.73
2018-07-11T05:36:58.858Z,15.81
2018-07-11T05:39:26.889Z,15.93
2018-07-11T05:41:55.257Z,16.10
2018-07-11T05:44:23.333Z,16.31
2018-07-11T05:46:55.569Z,16.46
2018-07-11T05:49:23.605Z,16.66
2018-07-11T05:51:51.842Z,16.88
2018-07-11T05:54:19.920Z,17.06
2018-07-11T05:56:48.292Z,17.25
2018-07-11T05:59:16.373Z,17.42
2018-07-11T06:01:44.413Z,17.72
2018-07-11T06:04:12.465Z,17.91
2018-07-11T06:06:40.533Z,18.06
2018-07-11T06:09:09.005Z,18.26
2018-07-11T06:11:37.209Z,18.43
2018-07-11T06:14:05.264Z,18.67
2018-07-11T06:16:33.317Z,18.91
2018-07-11T06:19:01.353Z,19.16
2018-07-11T06:21:29.617Z,19.36
2018-07-11T06:23:57.694Z,19.61
2018-07-11T06:26:25.728Z,19.82
2018-07-11T06:28:53.781Z,20.08
2018-07-11T06:31:22.263Z,20.33
2018-07-11T06:33:50.506Z,20.69
2018-07-11T06:36:18.653Z,21.01
2018-07-11T06:38:46.729Z,21.24
2018-07-11T06:41:14.803Z,21.47
2018-07-11T06:43:42.882Z,21.58
2018-07-11T06:46:10.918Z,21.80
2018-07-11T06:48:39.061Z,21.95
2018-07-11T06:51:07.101Z,22.13
2018-07-11T06:53:35.144Z,22.34
2018-07-11T06:56:03.230Z,22.51
2018-07-11T06:58:31.293Z,22.67
2018-07-11T07:00:59.673Z,22.67
2018-07-11T07:03:27.807Z,22.59
2018-07-11T07:05:55.783Z,22.46
2018-07-11T07:08:23.890Z,22.46
2018-07-11T07:10:51.954Z,22.39
2018-07-11T07:13:20.142Z,22.19
2018-07-11T07:15:48.402Z,21.94
2018-07-11T07:18:16.453Z,21.61
2018-07-11T07:20:44.557Z,21.28
2018-07-11T07:23:12.617Z,21.16
2018-07-11T07:25:40.653Z,21.14
2018-07-11T07:28:08.708Z,21.23
2018-07-11T07:30:36.825Z,21.22
2018-07-11T07:33:04.958Z,21.18
2018-07-11T07:35:33.293Z,21.11
2018-07-11T07:38:01.562Z,21.00
2018-07-11T07:40:29.609Z,20.90
2018-07-11T07:42:57.660Z,20.94
2018-07-11T07:45:25.711Z,20.87
2018-07-11T07:47:53.758Z,20.72
2018-07-11T07:50:22.317Z,20.49
2018-07-11T07:52:50.392Z,20.26
2018-07-11T07:55:18.401Z,20.11
2018-07-11T07:57:46.545Z,20.08
2018-07-11T08:00:14.611Z,19.96
2018-07-11T08:02:42.654Z,19.91
2018-07-11T08:05:10.951Z,19.83
2018-07-11T08:07:39.629Z,19.80
2018-07-11T08:10:08.300Z,19.85
2018-07-11T08:12:36.693Z,20.00
2018-07-11T08:15:05.591Z,20.16
2018-07-11T08:17:33.914Z,20.34
2018-07-11T08:20:02.276Z,20.57
2018-07-11T08:23:41.782Z,20.91
2018-07-11T08:26:21.659Z,21.44
2018-07-11T08:31:01.502Z,21.68
2018-07-11T08:35:49.087Z,21.73
2018-07-11T08:38:26.205Z,22.03
2018-07-11T08:43:09.234Z,22.09
2018-07-11T08:46:06.140Z,22.11
2018-07-11T08:49:50.333Z,22.04
2018-07-11T08:52:30.558Z,22.26
2018-07-11T08:55:24.200Z,22.31
2018-07-11T08:58:03.489Z,22.14
2018-07-11T09:02:51.179Z,21.88
2018-07-11T09:06:06.939Z,21.64
2018-07-11T09:08:51.961Z,21.74
2018-07-11T09:11:35.131Z,21.89
2018-07-11T09:16:21.862Z,22.00
2018-07-11T09:20:04.873Z,21.88
2018-07-11T09:22:44.230Z,21.60
2018-07-11T09:25:12.918Z,21.40
2018-07-11T09:27:40.966Z,21.33
2018-07-11T09:30:09.366Z,21.16
2018-07-11T09:32:37.443Z,20.99
2018-07-11T09:35:05.561Z,20.72
2018-07-11T09:37:33.962Z,20.57
2018-07-11T09:40:01.982Z,20.39
2018-07-11T09:42:30.030Z,20.30
2018-07-11T09:44:58.169Z,20.30
2018-07-11T09:47:27.082Z,20.37
2018-07-11T09:49:55.177Z,20.76
2018-07-11T09:52:23.541Z,21.26
2018-07-11T09:54:51.967Z,21.40
2018-07-11T09:57:20.033Z,21.48
2018-07-11T09:59:48.397Z,21.52
2018-07-11T10:02:16.791Z,21.54
2018-07-11T10:04:44.818Z,21.56
2018-07-11T10:07:13.389Z,21.63
2018-07-11T10:09:41.935Z,21.95
2018-07-11T10:12:10.141Z,22.01
2018-07-11T10:14:38.240Z,22.14
2018-07-11T10:17:06.265Z,22.25
2018-07-11T10:19:34.399Z,22.27
2018-07-11T10:22:02.762Z,22.39
2018-07-11T10:24:30.924Z,22.32
2018-07-11T10:26:58.997Z,22.37
2018-07-11T10:29:27.073Z,22.34
2018-07-11T10:31:55.137Z,22.39
2018-07-11T10:34:23.206Z,22.44
2018-07-11T10:36:51.396Z,22.31
2018-07-11T10:39:19.656Z,22.28
2018-07-11T10:41:47.736Z,22.34
2018-07-11T10:44:15.884Z,22.23
2018-07-11T10:46:43.927Z,22.30
2018-07-11T10:49:12.073Z,22.36
2018-07-11T10:51:40.105Z,22.44
2018-07-11T10:54:08.388Z,22.43
2018-07-11T10:56:36.513Z,22.27
2018-07-11T10:59:04.849Z,22.14
2018-07-11T11:01:33.022Z,21.87
2018-07-11T11:04:01.289Z,21.86
2018-07-11T11:06:29.333Z,21.91
2018-07-11T11:08:57.378Z,22.05
2018-07-11T11:11:25.810Z,22.26
2018-07-11T11:13:53.866Z,22.70
2018-07-11T11:16:21.950Z,22.99
2018-07-11T11:18:50.029Z,23.25
2018-07-11T11:21:18.209Z,23.48
2018-07-11T11:23:46.477Z,23.57
2018-07-11T11:26:14.550Z,23.67
2018-07-11T11:28:42.601Z,23.68
2018-07-11T11:31:10.654Z,23.47
2018-07-11T11:33:38.694Z,23.16
2018-07-11T11:36:06.833Z,22.99
2018-07-11T11:38:34.874Z,22.79
2018-07-11T11:41:02.906Z,22.69
2018-07-11T11:43:30.970Z,22.73
2018-07-11T11:45:59.233Z,22.95
2018-07-11T11:48:27.264Z,23.17
2018-07-11T11:50:55.301Z,23.36
2018-07-11T11:53:23.349Z,23.62
2018-07-11T11:55:51.398Z,23.75
2018-07-11T11:58:19.477Z,23.69
2018-07-11T12:00:47.522Z,23.75
2018-07-11T12:03:15.609Z,23.75
2018-07-11T12:05:43.657Z,23.82
2018-07-11T12:08:11.780Z,24.01
2018-07-11T12:10:39.834Z,23.85
2018-07-11T12:13:07.869Z,23.84
2018-07-11T12:15:35.927Z,23.76
2018-07-11T12:18:04.975Z,23.64
2018-07-11T12:20:33.022Z,23.52
2018-07-11T12:23:01.405Z,23.46
2018-07-11T12:25:29.489Z,23.43
2018-07-11T12:27:57.562Z,23.38
2018-07-11T12:30:25.633Z,23.26
2018-07-11T12:32:53.705Z,23.03
2018-07-11T12:35:21.767Z,22.86
2018-07-11T12:37:49.809Z,22.63
2018-07-11T12:40:18.015Z,22.52
2018-07-11T12:42:46.281Z,22.45
2018-07-11T12:45:14.468Z,22.39
2018-07-11T12:47:48.022Z,22.35
2018-07-11T12:50:16.083Z,22.35
2018-07-11T12:52:44.319Z,22.29
2018-07-11T12:55:12.363Z,22.29
2018-07-11T12:57:40.573Z,22.31
2018-07-11T13:00:08.931Z,22.30
2018-07-11T13:02:37.050Z,22.26
2018-07-11T13:05:05.688Z,22.22
2018-07-11T13:07:33.734Z,22.24
2018-07-11T13:10:01.774Z,22.35
2018-07-11T13:12:29.943Z,22.39
2018-07-11T13:14:58.175Z,22.43
2018-07-11T13:17:26.225Z,22.45
2018-07-11T13:19:54.274Z,22.45
2018-07-11T13:22:22.496Z,22.43
2018-07-11T13:24:50.557Z,22.45
2018-07-11T13:27:18.625Z,22.48
2018-07-11T13:29:46.708Z,22.46
2018-07-11T13:32:14.780Z,22.44
2018-07-11T13:34:42.833Z,22.44
2018-07-11T13:37:10.913Z,22.44
2018-07-11T13:39:39.184Z,22.42
2018-07-11T13:42:07.230Z,22.44
2018-07-11T13:44:35.277Z,22.48
2018-07-11T13:47:07.836Z,22.53
2018-07-11T13:49:35.883Z,22.55
2018-07-11T13:52:04.259Z,22.53
2018-07-11T13:54:32.339Z,22.50
2018-07-11T13:57:00.374Z,22.51
2018-07-11T13:59:28.422Z,22.54
2018-07-11T14:01:57.966Z,22.48
2018-07-11T14:04:26.649Z,22.40
2018-07-11T14:06:55.630Z,22.30
2018-07-11T14:09:23.670Z,22.18
2018-07-11T14:11:51.717Z,22.08
2018-07-11T14:14:19.745Z,22.03
2018-07-11T14:16:48.529Z,21.92
2018-07-11T14:19:16.581Z,21.87
2018-07-11T14:21:44.610Z,21.84
2018-07-11T14:24:13.748Z,21.84
2018-07-11T14:26:41.785Z,21.80
2018-07-11T14:29:10.125Z,21.76
2018-07-11T14:31:38.262Z,21.73
2018-07-11T14:34:08.001Z,21.72
2018-07-11T14:36:36.337Z,21.72
2018-07-11T14:39:06.913Z,21.77
2018-07-11T14:41:35.001Z,21.84
2018-07-11T14:44:03.065Z,21.87
2018-07-11T14:46:33.186Z,21.91
2018-07-11T14:49:01.259Z,21.92
2018-07-11T14:51:29.341Z,21.90
2018-07-11T14:53:57.900Z,21.93
2018-07-11T14:56:25.966Z,21.98
2018-07-11T14:58:58.477Z,22.10
2018-07-11T15:01:26.749Z,22.23
2018-07-11T15:03:55.014Z,22.39
2018-07-11T15:06:23.705Z,22.50
2018-07-11T15:08:52.162Z,22.64
2018-07-11T15:11:20.630Z,22.85
2018-07-11T15:13:48.747Z,23.04
2018-07-11T15:16:16.803Z,23.33
2018-07-11T15:18:45.071Z,23.44
2018-07-11T15:21:13.297Z,23.70
2018-07-11T15:23:41.490Z,23.86
2018-07-11T15:26:09.521Z,23.88
2018-07-11T15:28:37.549Z,23.78
2018-07-11T15:31:05.602Z,23.81
2018-07-11T15:33:33.637Z,23.74
2018-07-11T15:36:01.665Z,23.70
2018-07-11T15:38:29.750Z,23.58
2018-07-11T15:40:59.018Z,23.59
2018-07-11T15:43:27.777Z,23.62
2018-07-11T15:45:56.309Z,23.63
2018-07-11T15:48:24.425Z,23.56
2018-07-11T15:50:52.987Z,23.58
2018-07-11T15:53:21.447Z,23.48
2018-07-11T15:55:49.949Z,23.38
2018-07-11T15:58:19.100Z,23.27
2018-07-11T16:00:47.166Z,23.21
2018-07-11T16:03:15.205Z,23.20
2018-07-11T16:05:44.632Z,23.15
2018-07-11T16:08:16.949Z,23.15
2018-07-11T16:10:48.764Z,22.98
2018-07-11T16:13:16.805Z,22.82
2018-07-11T16:15:45.905Z,22.77
2018-07-11T16:18:16.011Z,22.72
2018-07-11T16:20:47.341Z,22.57
2018-07-11T16:23:15.372Z,22.56
2018-07-11T16:25:44.223Z,22.69
2018-07-11T16:28:12.297Z,22.82
2018-07-11T16:30:40.629Z,22.92
2018-07-11T16:33:09.312Z,23.22
2018-07-11T16:35:37.363Z,23.28
2018-07-11T16:45:23.934Z,24.63
2018-07-11T16:47:51.997Z,24.53
2018-07-11T16:50:47.317Z,24.20
2018-07-11T16:53:15.727Z,23.98
2018-07-11T16:56:23.734Z,23.78
2018-07-11T17:06:12.547Z,22.97
2018-07-11T17:08:47.390Z,22.89
2018-07-11T17:12:53.374Z,22.94
2018-07-11T17:15:23.599Z,22.93
2018-07-11T17:17:54.279Z,22.98
2018-07-11T17:20:23.802Z,23.03
2018-07-11T17:22:55.187Z,23.10
2018-07-11T17:25:23.333Z,23.09
2018-07-11T17:28:02.276Z,23.08
2018-07-11T17:30:32.381Z,23.09
2018-07-11T17:33:01.090Z,23.10
2018-07-11T17:35:29.278Z,23.07
2018-07-11T17:37:58.270Z,23.09
2018-07-11T17:40:26.562Z,23.04
2018-07-11T17:42:54.998Z,22.93
2018-07-11T17:45:23.352Z,22.72
2018-07-11T17:47:57.412Z,22.51
2018-07-11T17:50:28.352Z,22.33
2018-07-11T17:53:17.997Z,22.27
2018-07-11T17:56:01.155Z,22.20
2018-07-11T17:59:02.067Z,22.12
2018-07-11T18:01:43.146Z,21.84
2018-07-11T18:04:18.970Z,21.64
2018-07-11T18:06:54.461Z,21.47
2018-07-11T18:09:24.114Z,21.35
2018-07-11T18:11:54.494Z,21.30
2018-07-11T18:14:44.133Z,21.26
2018-07-11T18:17:24.482Z,21.18
2018-07-11T18:20:00.143Z,21.02
2018-07-11T18:22:47.366Z,20.91
2018-07-11T18:25:33.483Z,20.80
2018-07-11T18:29:18.865Z,20.73
2018-07-11T18:31:56.714Z,20.65
2018-07-11T18:34:35.757Z,20.60
2018-07-11T18:37:20.426Z,20.62
2018-07-11T18:39:58.095Z,20.59
2018-07-11T18:42:32.615Z,20.56
2018-07-11T18:47:14.607Z,20.60
2018-07-11T18:50:58.890Z,20.58
2018-07-11T18:54:12.886Z,20.52
2018-07-11T18:57:06.855Z,20.56
2018-07-11T19:00:10.933Z,20.53
2018-07-11T19:05:53.452Z,20.49
2018-07-11T19:08:28.853Z,20.40
2018-07-11T19:11:20.736Z,20.37
2018-07-11T19:13:51.430Z,20.36
2018-07-11T19:16:44.718Z,20.31
2018-07-11T19:19:18.114Z,20.27
2018-07-11T19:21:55.482Z,20.24
2018-07-11T19:24:36.693Z,20.24
2018-07-11T19:27:12.684Z,20.27
2018-07-11T19:30:02.870Z,20.30
2018-07-11T19:32:45.295Z,20.27
2018-07-11T19:35:17.925Z,20.26
2018-07-11T19:37:53.093Z,20.23
2018-07-11T19:40:32.120Z,20.23
2018-07-11T19:43:06.312Z,20.22
2018-07-11T19:48:44.277Z,20.20
2018-07-11T19:52:35.768Z,20.16
2018-07-11T19:55:31.694Z,20.18
2018-07-11T19:57:59.769Z,20.17
2018-07-11T20:00:27.878Z,20.16
2018-07-11T20:02:56.043Z,20.14
2018-07-11T20:05:24.375Z,20.11
2018-07-11T20:07:52.950Z,20.04
2018-07-11T20:10:21.439Z,19.98
2018-07-11T20:12:49.884Z,19.95
2018-07-11T20:15:18.136Z,19.92
2018-07-11T20:17:46.170Z,19.90
2018-07-11T20:20:14.342Z,19.89
2018-07-11T20:22:42.681Z,19.87
2018-07-11T20:25:10.830Z,19.88
2018-07-11T20:27:40.259Z,19.88
2018-07-11T20:30:08.865Z,19.88
2018-07-11T20:32:36.958Z,19.88
2018-07-11T20:35:05.133Z,19.88
2018-07-11T20:37:33.215Z,19.88
2018-07-11T20:40:01.661Z,19.87
2018-07-11T20:42:29.785Z,19.84
2018-07-11T20:44:58.086Z,19.81
2018-07-11T20:47:26.131Z,19.82
2018-07-11T20:49:54.182Z,19.81
2018-07-11T20:52:24.469Z,19.78
2018-07-11T20:54:52.522Z,19.80
2018-07-11T20:57:20.564Z,19.80
2018-07-11T21:00:00.034Z,19.80
2018-07-11T21:02:39.400Z,19.80
2018-07-11T21:07:22.233Z,19.82
2018-07-11T21:12:03.938Z,19.83
2018-07-11T21:14:41.995Z,19.81
2018-07-11T21:17:30.099Z,19.80
2018-07-11T21:19:58.303Z,19.78
2018-07-11T21:22:26.338Z,19.74
2018-07-11T21:24:55.504Z,19.70
2018-07-11T21:27:23.548Z,19.69
2018-07-11T21:29:51.621Z,19.67
2018-07-11T21:32:19.657Z,19.67
2018-07-11T21:34:47.741Z,19.65
2018-07-11T21:37:15.813Z,19.64
2018-07-11T21:39:43.929Z,19.67
2018-07-11T21:42:11.998Z,19.69
2018-07-11T21:44:40.059Z,19.70
2018-07-11T21:47:08.128Z,19.72
2018-07-11T21:49:36.178Z,19.72
2018-07-11T21:52:04.604Z,19.72
2018-07-11T21:54:32.695Z,19.69
2018-07-11T21:57:00.739Z,19.65
2018-07-11T21:59:28.791Z,19.54
2018-07-11T22:01:56.898Z,19.46
2018-07-11T22:04:25.072Z,19.40
2018-07-11T22:06:53.245Z,19.37
2018-07-11T22:09:21.286Z,19.33
2018-07-11T22:11:49.366Z,19.26
2018-07-11T22:14:17.542Z,19.22
2018-07-11T22:16:45.580Z,19.21
2018-07-11T22:19:14.063Z,19.17
2018-07-11T22:21:41.129Z,19.11
2018-07-11T22:24:08.342Z,19.08
2018-07-11T22:26:35.563Z,19.03
2018-07-11T22:29:03.582Z,19.00
2018-07-11T22:31:30.642Z,18.95
2018-07-11T22:33:57.698Z,18.91
2018-07-11T22:36:24.765Z,18.90
2018-07-11T22:38:51.834Z,18.86
2018-07-11T22:41:18.900Z,18.81
2018-07-11T22:43:46.845Z,18.76
2018-07-11T22:46:13.927Z,18.75
2018-07-11T22:48:41.142Z,18.75
2018-07-11T22:51:08.208Z,18.75
2018-07-11T22:53:35.269Z,18.72
2018-07-11T22:56:02.337Z,18.71
2018-07-11T22:58:29.413Z,18.67
2018-07-11T23:00:56.471Z,18.64
2018-07-11T23:03:23.535Z,18.64
2018-07-11T23:05:50.594Z,18.64
2018-07-11T23:08:17.718Z,18.63
2018-07-11T23:10:44.898Z,18.60
2018-07-11T23:13:12.046Z,18.55
2018-07-11T23:15:39.191Z,18.48
2018-07-11T23:18:06.267Z,18.41
2018-07-11T23:20:33.636Z,18.36
2018-07-11T23:23:00.674Z,18.27
2018-07-11T23:25:27.749Z,18.21
2018-07-11T23:27:54.832Z,18.18
2018-07-11T23:30:21.892Z,18.11
2018-07-11T23:32:48.961Z,18.10
2018-07-11T23:35:16.025Z,18.04
2018-07-11T23:37:43.090Z,18.01
2018-07-11T23:40:10.311Z,18.02
2018-07-11T23:42:37.516Z,18.01
2018-07-11T23:45:04.588Z,17.99
2018-07-11T23:47:31.662Z,17.99
2018-07-11T23:49:58.729Z,17.96
2018-07-11T23:52:25.793Z,17.96
2018-07-11T23:54:52.857Z,17.95
2018-07-11T23:57:19.935Z,17.90
2018-07-11T23:59:46.998Z,17.93
